Terminal Aerodrome Forecast
Issued by NWS

Home | Current Version | Previous Version | Text Only | Print | Product List | Glossary Off
Versions: 1 2 3 4 5 6 7 8 9 10 11 12 13 14 15

000
FTUS43 KMPX 281721
TAFRWF
TAF
KRWF 281721Z 2818/2918 01010KT P6SM SCT025 BKN250
      TEMPO 2818/2821 BKN025
     FM282100 02007KT P6SM OVC200
     FM291200 05009KT P6SM SCT200=

USA.gov is the U.S. government's official web portal to all federal, state and local government web resources and services.